Time;durP1;ratioP1;P1;durP2;ratioP2;P2;SDS_P1;SDS_P2;PMS_P1;PMS_P2;Temp;Humidity;BMP_temperature;BMP_pressure;BME280_temperature;BME280_humidity;BME280_pressure;Samples;Min_cycle;Max_cycle;Signal;HPM_P1;HPM_P2
2023/04/13 00:00:13;;;;;;;1.33;0.90;;;;;;;9.51;61.34;95127.69;4989421;28;20200;-70
2023/04/13 00:02:38;;;;;;;2.60;1.13;;;;;;;9.53;61.06;95137.16;4989304;28;20658;-70
2023/04/13 00:05:08;;;;;;;12.53;1.30;;;;;;;9.57;60.57;95135.19;4989313;28;20422;-70
2023/04/13 00:07:37;;;;;;;1.50;1.10;;;;;;;9.59;60.32;95141.19;4989120;28;20635;-71
2023/04/13 00:10:08;;;;;;;3.67;0.90;;;;;;;9.46;61.26;95141.06;4989269;28;20432;-70
2023/04/13 00:12:35;;;;;;;1.57;0.80;;;;;;;9.50;61.03;95137.34;4989484;28;20439;-70
2023/04/13 00:15:01;;;;;;;2.40;0.90;;;;;;;9.64;60.89;95146.16;4989371;28;20475;-70
2023/04/13 00:17:27;;;;;;;2.33;1.00;;;;;;;9.50;61.40;95153.06;4988209;28;20444;-70
2023/04/13 00:19:52;;;;;;;2.20;0.70;;;;;;;9.42;61.95;95157.88;4987705;28;20471;-70
2023/04/13 00:22:19;;;;;;;1.97;0.80;;;;;;;9.46;62.18;95167.25;4989325;28;20212;-70
2023/04/13 00:24:44;;;;;;;1.30;0.80;;;;;;;9.42;62.02;95165.75;4989079;28;20217;-71
2023/04/13 00:27:10;;;;;;;2.40;0.80;;;;;;;9.57;61.04;95157.91;4988661;28;20448;-70
2023/04/13 00:29:36;;;;;;;1.10;0.70;;;;;;;9.50;61.56;95154.84;4989103;28;20177;-70
2023/04/13 00:32:02;;;;;;;2.07;0.90;;;;;;;9.42;61.91;95165.75;4988686;28;20470;-70
2023/04/13 00:34:27;;;;;;;1.87;0.70;;;;;;;9.40;61.06;95172.00;4988963;28;20220;-70
2023/04/13 00:36:53;;;;;;;0.90;0.67;;;;;;;9.20;62.37;95178.44;4988527;28;20775;-70
2023/04/13 00:39:21;;;;;;;3.30;0.63;;;;;;;9.37;61.55;95173.03;4988900;28;20169;-71
2023/04/13 00:41:50;;;;;;;1.30;0.70;;;;;;;9.26;62.01;95178.03;4988294;28;20216;-71
2023/04/13 00:44:20;;;;;;;2.07;1.10;;;;;;;9.14;61.82;95181.38;4988199;28;20420;-70
2023/04/13 00:46:47;;;;;;;1.07;0.70;;;;;;;9.24;61.63;95182.56;4987602;28;20412;-70
2023/04/13 00:49:17;;;;;;;1.00;0.60;;;;;;;9.30;60.70;95187.41;4987858;28;20462;-70
2023/04/13 00:51:43;;;;;;;1.60;0.70;;;;;;;9.34;61.17;95188.94;4988622;28;20467;-70
2023/04/13 00:54:13;;;;;;;1.00;0.70;;;;;;;9.24;61.21;95198.25;4988351;28;20420;-70
2023/04/13 00:56:42;;;;;;;1.17;0.73;;;;;;;9.14;61.42;95187.44;4988412;28;20412;-70
2023/04/13 00:59:09;;;;;;;1.30;0.73;;;;;;;9.18;61.23;95188.97;4989090;28;20976;-70
2023/04/13 01:01:44;;;;;;;1.63;0.97;;;;;;;9.10;61.53;95181.56;4987864;28;21039;-70
2023/04/13 01:04:11;;;;;;;2.87;1.33;;;;;;;9.12;61.70;95176.25;4987716;28;20521;-70
2023/04/13 01:06:43;;;;;;;3.20;0.90;;;;;;;9.12;61.43;95173.63;4987368;28;20774;-70
2023/04/13 01:09:17;;;;;;;1.00;0.80;;;;;;;9.01;62.33;95169.00;4987589;28;20412;-70
2023/04/13 01:11:53;;;;;;;4.13;1.30;;;;;;;8.95;61.95;95161.50;4987674;28;20797;-70
2023/04/13 01:14:36;;;;;;;1.00;0.70;;;;;;;8.93;62.04;95152.06;4987448;28;20490;-70
2023/04/13 01:17:09;;;;;;;1.20;0.90;;;;;;;8.92;62.32;95155.63;4987178;28;21000;-70
2023/04/13 01:19:55;;;;;;;1.27;0.73;;;;;;;8.91;62.33;95152.16;4987447;28;20416;-70
2023/04/13 01:22:26;;;;;;;1.97;0.70;;;;;;;8.85;63.11;95165.59;4987449;28;20463;-70
2023/04/13 01:25:24;;;;;;;1.20;0.70;;;;;;;8.86;62.52;95151.59;4987717;28;20886;-70
2023/04/13 01:28:04;;;;;;;4.27;1.00;;;;;;;8.85;63.16;95155.97;4987412;28;20423;-69
2023/04/13 01:30:31;;;;;;;2.90;0.80;;;;;;;8.76;62.90;95158.25;4986459;28;20936;-70
2023/04/13 01:32:58;;;;;;;1.33;1.03;;;;;;;8.81;62.89;95158.81;4987632;28;20424;-70
2023/04/13 01:35:25;;;;;;;1.10;0.83;;;;;;;8.85;63.09;95155.13;4987788;28;20516;-70
2023/04/13 01:37:51;;;;;;;1.67;0.80;;;;;;;8.63;63.39;95156.34;4987120;28;20431;-70
2023/04/13 01:40:19;;;;;;;1.30;0.90;;;;;;;8.69;62.88;95139.44;4946785;28;1179758;-70
2023/04/13 01:42:45;;;;;;;1.20;0.80;;;;;;;8.65;63.71;95144.03;4988012;28;20192;-70
2023/04/13 01:45:35;;;;;;;2.50;0.90;;;;;;;8.70;63.17;95146.38;4988134;28;20465;-70
2023/04/13 01:48:27;;;;;;;1.70;1.10;;;;;;;8.58;64.08;95150.53;4987736;28;20187;-70
2023/04/13 01:50:57;;;;;;;1.27;0.80;;;;;;;8.60;63.82;95158.28;4987675;28;20475;-70
2023/04/13 01:53:34;;;;;;;1.10;0.87;;;;;;;8.37;64.85;95151.69;4987881;28;20419;-70
2023/04/13 01:56:03;;;;;;;5.70;1.50;;;;;;;8.56;63.85;95162.84;4987591;28;20412;-71
2023/04/13 01:58:32;;;;;;;3.97;1.30;;;;;;;8.70;63.99;95175.16;4987805;28;20988;-70
2023/04/13 02:00:58;;;;;;;1.33;0.90;;;;;;;8.59;64.02;95180.97;4987604;28;20443;-70
2023/04/13 02:03:24;;;;;;;5.10;0.93;;;;;;;8.58;63.34;95168.00;4987600;28;20420;-69
2023/04/13 02:05:50;;;;;;;1.27;1.07;;;;;;;8.61;63.49;95179.09;4987345;28;20434;-69
2023/04/13 02:08:17;;;;;;;1.80;1.33;;;;;;;8.71;63.46;95176.81;4987517;28;20829;-69
2023/04/13 02:10:43;;;;;;;1.60;1.00;;;;;;;8.68;63.20;95171.78;4987602;28;20221;-69
2023/04/13 02:13:09;;;;;;;2.50;1.10;;;;;;;8.71;64.06;95181.22;4987600;28;20416;-69
2023/04/13 02:15:36;;;;;;;2.17;1.40;;;;;;;8.56;63.94;95175.91;4987456;28;20968;-69
2023/04/13 02:18:05;;;;;;;1.93;1.10;;;;;;;8.63;64.02;95176.41;4987446;28;20165;-70
2023/04/13 02:20:41;;;;;;;1.60;1.10;;;;;;;8.71;63.76;95186.44;4987632;28;20436;-70
2023/04/13 02:23:09;;;;;;;2.30;1.00;;;;;;;8.72;64.30;95185.50;4987466;28;20463;-70
2023/04/13 02:25:35;;;;;;;1.63;0.83;;;;;;;8.61;64.09;95181.72;5002245;28;20420;-69
2023/04/13 02:28:01;;;;;;;2.03;0.90;;;;;;;8.35;64.97;95177.91;4985970;28;20439;-69
2023/04/13 02:30:27;;;;;;;1.20;0.93;;;;;;;8.38;65.15;95187.34;4987317;28;20890;-69
2023/04/13 02:32:54;;;;;;;1.20;0.80;;;;;;;8.50;65.12;95185.88;4987409;28;20169;-70
2023/04/13 02:35:20;;;;;;;1.20;0.80;;;;;;;8.56;64.95;95181.13;4987477;28;20181;-70
2023/04/13 02:37:47;;;;;;;1.00;0.70;;;;;;;8.67;64.86;95178.78;4987275;28;20435;-69
2023/04/13 02:40:13;;;;;;;1.03;0.70;;;;;;;8.74;63.91;95183.66;4987085;28;20531;-70
2023/04/13 02:42:39;;;;;;;1.60;0.90;;;;;;;8.65;64.83;95183.25;4990737;28;20567;-70
2023/04/13 02:45:06;;;;;;;3.17;0.80;;;;;;;8.56;64.85;95178.53;4990692;28;20526;-70
2023/04/13 02:47:33;;;;;;;1.40;1.13;;;;;;;8.58;64.96;95181.06;4990466;28;20181;-70
2023/04/13 02:50:00;;;;;;;1.10;0.70;;;;;;;8.58;65.70;95186.28;4990812;28;20443;-71
2023/04/13 02:52:26;;;;;;;0.90;0.73;;;;;;;8.59;66.24;95178.34;4990840;28;20448;-71
2023/04/13 02:54:53;;;;;;;3.93;1.40;;;;;;;8.56;66.13;95181.13;4990727;28;20952;-70
2023/04/13 02:57:21;;;;;;;2.90;1.10;;;;;;;8.60;65.42;95174.81;4990694;28;20195;-70
2023/04/13 02:59:47;;;;;;;1.27;1.00;;;;;;;8.54;65.96;95177.75;4990842;28;20435;-71
2023/04/13 03:02:13;;;;;;;1.87;0.90;;;;;;;8.37;66.28;95173.44;4990779;28;20474;-71
2023/04/13 03:04:39;;;;;;;1.77;1.33;;;;;;;8.50;65.85;95167.56;4990708;28;20507;-71
2023/04/13 03:07:08;;;;;;;1.13;0.90;;;;;;;8.61;65.20;95171.25;4990288;28;20177;-70
2023/04/13 03:09:37;;;;;;;1.20;0.80;;;;;;;8.60;65.55;95172.22;4990441;28;20579;-70
2023/04/13 03:12:03;;;;;;;3.10;1.23;;;;;;;8.50;65.39;95164.94;5005183;28;20885;-70
2023/04/13 03:14:28;;;;;;;6.07;1.63;;;;;;;8.56;65.44;95178.53;4990539;28;20941;-70
2023/04/13 03:16:56;;;;;;;1.70;1.07;;;;;;;8.55;65.09;95174.25;4989987;28;20455;-70
2023/04/13 03:19:22;;;;;;;2.73;1.00;;;;;;;8.42;66.34;95186.28;4990376;28;20796;-70
2023/04/13 03:21:48;;;;;;;2.23;1.00;;;;;;;8.42;66.29;95179.28;4990329;28;20478;-70
2023/04/13 03:24:14;;;;;;;2.33;1.03;;;;;;;8.50;65.89;95180.63;4988696;28;20235;-70
2023/04/13 03:26:40;;;;;;;1.57;1.47;;;;;;;8.54;65.67;95182.16;4990119;28;20849;-70
2023/04/13 03:29:06;;;;;;;2.40;1.60;;;;;;;8.58;65.87;95183.69;4990367;28;20444;-70
2023/04/13 03:31:34;;;;;;;1.97;1.30;;;;;;;8.48;65.82;95180.75;4988735;28;20193;-70
2023/04/13 03:34:00;;;;;;;1.70;1.13;;;;;;;8.46;65.85;95177.34;4989892;28;20567;-68
2023/04/13 03:36:26;;;;;;;1.20;1.00;;;;;;;8.56;65.85;95173.31;5004877;28;20431;-69
2023/04/13 03:38:52;;;;;;;2.00;1.50;;;;;;;8.46;65.41;95172.13;4990383;28;20510;-68
2023/04/13 03:41:18;;;;;;;4.70;1.20;;;;;;;8.59;65.07;95178.34;4989884;28;20474;-69
2023/04/13 03:43:44;;;;;;;4.30;1.67;;;;;;;8.60;64.93;95182.66;5005811;28;20590;-69
2023/04/13 03:46:11;;;;;;;1.47;1.17;;;;;;;8.56;64.86;95191.59;4989706;28;20206;-69
2023/04/13 03:48:42;;;;;;;1.97;1.30;;;;;;;8.53;64.84;95177.84;4990119;28;20416;-69
2023/04/13 03:51:16;;;;;;;4.60;1.57;;;;;;;8.43;65.66;95181.00;4988466;28;20475;-69
2023/04/13 03:53:42;;;;;;;17.83;2.60;;;;;;;8.41;65.24;95184.59;4988885;28;20407;-69
2023/04/13 03:56:07;;;;;;;2.23;2.03;;;;;;;8.37;65.52;95180.44;4989611;28;20411;-68
2023/04/13 03:58:34;;;;;;;1.20;1.10;;;;;;;8.39;64.97;95176.81;4989330;28;20219;-69
2023/04/13 04:00:59;;;;;;;9.67;1.83;;;;;;;8.26;65.38;95186.25;4989547;28;20192;-69
2023/04/13 04:03:25;;;;;;;2.37;1.63;;;;;;;8.27;65.70;95180.94;4989379;28;20497;-69
2023/04/13 04:05:51;;;;;;;1.47;1.23;;;;;;;8.25;66.05;95192.41;5004050;28;20227;-69
2023/04/13 04:08:16;;;;;;;2.33;1.33;;;;;;;8.25;66.11;95198.47;4989169;28;20260;-68
2023/04/13 04:10:50;;;;;;;3.10;1.40;;;;;;;8.20;65.89;95197.88;4989144;28;20577;-70
2023/04/13 04:13:16;;;;;;;3.00;1.87;;;;;;;8.16;65.28;95204.19;4989088;28;20180;-69
2023/04/13 04:15:41;;;;;;;3.10;1.90;;;;;;;8.10;65.91;95201.06;4988768;28;20420;-69
2023/04/13 04:18:07;;;;;;;4.83;2.00;;;;;;;8.18;66.05;95201.50;4988728;28;20179;-69
2023/04/13 04:20:36;;;;;;;2.23;1.60;;;;;;;8.13;65.69;95198.31;4989019;28;20196;-69
2023/04/13 04:23:03;;;;;;;3.97;1.77;;;;;;;8.07;66.30;95192.44;4984931;28;20315;-68
2023/04/13 04:25:29;;;;;;;2.80;1.57;;;;;;;8.18;65.91;95209.34;4977842;28;20424;-68
2023/04/13 04:28:01;;;;;;;2.10;1.57;;;;;;;8.12;65.63;95205.28;4988074;28;20786;-69
2023/04/13 04:30:28;;;;;;;7.20;2.10;;;;;;;8.19;65.99;95209.25;4981454;28;20654;-69
2023/04/13 04:32:56;;;;;;;4.50;2.90;;;;;;;8.12;66.19;95204.44;4977763;28;20483;-68
2023/04/13 04:35:25;;;;;;;10.67;1.93;;;;;;;8.17;65.93;95205.91;4982406;28;20435;-69
2023/04/13 04:37:54;;;;;;;4.10;1.97;;;;;;;8.18;65.68;95202.34;4990762;28;21282;-67
2023/04/13 04:40:21;;;;;;;3.63;1.70;;;;;;;8.04;65.71;95202.25;4988372;28;20455;-67
2023/04/13 04:42:47;;;;;;;5.33;2.37;;;;;;;8.03;65.68;95205.75;4974285;28;20503;-68
2023/04/13 04:45:15;;;;;;;3.00;1.80;;;;;;;7.95;66.30;95211.41;4978904;28;20464;-68
2023/04/13 04:47:42;;;;;;;6.20;1.90;;;;;;;7.94;65.95;95214.13;4970476;28;20174;-68
2023/04/13 04:50:11;;;;;;;13.30;3.07;;;;;;;7.91;66.71;95211.63;4974214;28;20444;-68
2023/04/13 04:52:38;;;;;;;6.60;3.50;;;;;;;8.01;66.09;95215.47;4976856;28;20905;-69
2023/04/13 04:55:05;;;;;;;3.77;3.47;;;;;;;8.00;65.93;95214.59;4985321;28;20468;-69
2023/04/13 04:57:34;;;;;;;5.87;2.40;;;;;;;7.90;66.12;95218.63;4971057;28;20476;-69
2023/04/13 05:00:09;;;;;;;3.70;2.30;;;;;;;7.91;65.81;95212.47;4966443;28;20781;-69
2023/04/13 05:02:35;;;;;;;9.10;2.57;;;;;;;7.87;65.99;95224.03;4966363;28;20596;-69
2023/04/13 05:05:05;;;;;;;4.10;2.13;;;;;;;7.84;66.34;95217.19;4966502;28;20425;-69
2023/04/13 05:07:31;;;;;;;2.60;2.27;;;;;;;7.96;65.67;95220.06;4975367;28;20429;-69
2023/04/13 05:09:56;;;;;;;10.07;3.03;;;;;;;7.87;65.76;95224.03;4979333;28;21024;-69
2023/04/13 05:12:22;;;;;;;3.20;2.77;;;;;;;7.90;65.75;95233.47;4977809;28;20181;-69
2023/04/13 05:14:48;;;;;;;18.47;3.00;;;;;;;8.00;65.49;95242.50;4981411;28;20271;-69
2023/04/13 05:17:17;;;;;;;4.93;2.70;;;;;;;7.90;65.17;95243.91;4954382;28;20185;-69
2023/04/13 05:19:44;;;;;;;2.67;2.10;;;;;;;7.90;65.28;95241.31;4966312;28;20180;-68
2023/04/13 05:22:10;;;;;;;4.50;2.17;;;;;;;7.93;64.81;95243.75;4968226;28;20454;-69
2023/04/13 05:24:36;;;;;;;11.77;2.80;;;;;;;7.97;65.10;95246.13;4964529;28;20429;-68
2023/04/13 05:27:02;;;;;;;5.77;2.00;;;;;;;7.92;64.73;95252.53;4971285;28;20516;-68
2023/04/13 05:29:27;;;;;;;2.93;1.90;;;;;;;7.90;64.45;95257.81;4985073;28;20172;-69
2023/04/13 05:31:52;;;;;;;2.33;1.73;;;;;;;8.02;63.90;95251.94;4984419;28;20592;-68
2023/04/13 05:34:18;;;;;;;7.00;1.90;;;;;;;8.05;63.78;95262.25;4983756;28;20175;-69
2023/04/13 05:36:43;;;;;;;6.10;2.20;;;;;;;8.21;62.87;95262.28;4984536;28;20172;-69
2023/04/13 05:39:09;;;;;;;6.10;2.00;;;;;;;8.32;62.38;95263.50;4984924;28;20164;-70
2023/04/13 05:41:35;;;;;;;3.00;1.73;;;;;;;8.42;62.12;95257.72;4972331;28;20209;-68
2023/04/13 05:44:01;;;;;;;3.13;1.90;;;;;;;8.45;61.61;95254.94;4965525;28;20256;-68
2023/04/13 05:46:26;;;;;;;2.93;1.73;;;;;;;8.37;61.79;95261.47;4965037;28;20174;-68
2023/04/13 05:48:52;;;;;;;3.90;2.10;;;;;;;8.20;63.08;95265.84;4966339;28;20173;-67
2023/04/13 05:51:18;;;;;;;3.00;1.93;;;;;;;8.35;62.72;95268.56;4965367;28;20205;-68
2023/04/13 05:53:45;;;;;;;2.70;1.87;;;;;;;8.35;61.81;95272.00;4965527;28;20843;-68
2023/04/13 05:56:11;;;;;;;11.07;2.13;;;;;;;8.31;61.36;95265.25;4963821;28;20417;-68
2023/04/13 05:58:37;;;;;;;7.50;2.00;;;;;;;8.20;61.87;95265.84;4982127;28;20482;-68
2023/04/13 06:01:03;;;;;;;11.97;2.70;;;;;;;8.25;61.77;95270.81;4984930;28;20181;-69
2023/04/13 06:03:29;;;;;;;7.83;2.37;;;;;;;8.28;61.86;95271.47;4984385;28;20474;-70
2023/04/13 06:05:55;;;;;;;4.90;2.20;;;;;;;8.20;62.68;95273.66;4999641;28;20799;-68
2023/04/13 06:08:20;;;;;;;5.70;2.20;;;;;;;8.32;62.17;95269.56;4984771;28;20177;-67
2023/04/13 06:10:47;;;;;;;5.87;2.53;;;;;;;8.34;62.25;95274.69;4984190;28;20450;-67
2023/04/13 06:13:13;;;;;;;17.03;3.00;;;;;;;8.39;61.39;95285.78;4984855;28;20161;-67
2023/04/13 06:15:39;;;;;;;8.50;2.63;;;;;;;8.40;61.57;95280.47;4985014;28;20459;-67
2023/04/13 06:18:04;;;;;;;9.87;2.80;;;;;;;8.34;61.67;95282.53;4988310;28;20192;-68
2023/04/13 06:20:33;;;;;;;21.63;4.13;;;;;;;8.52;60.85;95284.19;4988097;28;20251;-68
2023/04/13 06:22:59;;;;;;;7.77;2.60;;;;;;;8.51;61.39;95272.06;4987954;28;20207;-67
2023/04/13 06:25:24;;;;;;;11.53;3.30;;;;;;;8.52;60.68;95283.38;4988311;28;20408;-68
2023/04/13 06:27:50;;;;;;;13.00;2.83;;;;;;;8.56;60.57;95280.50;4988328;28;20925;-68
2023/04/13 06:30:15;;;;;;;7.80;2.70;;;;;;;8.46;61.19;95285.38;4987689;28;20238;-70
2023/04/13 06:32:41;;;;;;;8.43;2.90;;;;;;;8.60;60.59;95283.81;4989610;28;20201;-69
2023/04/13 06:35:07;;;;;;;12.53;3.83;;;;;;;8.57;60.47;95276.94;4977060;28;20178;-68
2023/04/13 06:37:34;;;;;;;12.40;4.03;;;;;;;8.55;61.23;95277.97;4970408;28;20257;-67
2023/04/13 06:40:07;;;;;;;9.90;3.00;;;;;;;8.70;59.34;95271.91;4970454;28;20517;-67
2023/04/13 06:42:33;;;;;;;10.40;3.23;;;;;;;8.62;59.92;95277.56;4970383;28;20457;-68
2023/04/13 06:44:58;;;;;;;3.90;2.40;;;;;;;8.81;59.21;95280.03;4970687;28;20520;-67
2023/04/13 06:47:24;;;;;;;5.53;2.53;;;;;;;8.79;58.62;95273.19;4970269;28;20229;-67
2023/04/13 06:49:50;;;;;;;9.20;2.20;;;;;;;8.84;59.16;95271.16;4970480;28;20189;-68
2023/04/13 06:52:15;;;;;;;8.87;2.60;;;;;;;8.84;58.93;95268.53;4970260;28;20166;-68
2023/04/13 06:54:41;;;;;;;9.30;3.60;;;;;;;8.84;58.42;95258.91;4970381;28;20752;-68
2023/04/13 06:57:06;;;;;;;7.20;3.23;;;;;;;8.90;58.03;95260.34;4969940;28;20166;-68
2023/04/13 06:59:32;;;;;;;8.43;3.17;;;;;;;8.90;57.51;95263.81;4969957;28;20525;-67
2023/04/13 07:01:57;;;;;;;13.33;3.67;;;;;;;8.87;57.65;95260.53;4970196;28;20263;-67
2023/04/13 07:04:23;;;;;;;17.40;2.93;;;;;;;8.91;57.93;95275.13;4970115;28;20713;-68
2023/04/13 07:06:48;;;;;;;14.07;3.57;;;;;;;8.92;58.07;95276.81;4969720;28;20200;-68
2023/04/13 07:09:14;;;;;;;17.87;3.83;;;;;;;8.99;57.31;95264.22;4970288;28;20189;-68
2023/04/13 07:11:39;;;;;;;6.47;2.67;;;;;;;9.05;56.85;95269.13;4968513;28;20193;-67
2023/04/13 07:14:05;;;;;;;11.27;2.60;;;;;;;8.93;56.12;95278.50;4970092;28;20169;-68
2023/04/13 07:16:30;;;;;;;20.53;3.00;;;;;;;9.10;55.55;95273.16;4969783;28;20173;-69
2023/04/13 07:18:59;;;;;;;4.77;2.10;;;;;;;9.12;55.19;95273.09;4969971;28;20226;-68
2023/04/13 07:21:26;;;;;;;11.33;2.20;;;;;;;9.07;55.45;95268.13;4972086;28;20287;-67
2023/04/13 07:23:52;;;;;;;5.63;1.57;;;;;;;9.12;54.82;95262.63;4978766;28;20468;-70
2023/04/13 07:26:17;;;;;;;3.83;1.57;;;;;;;9.08;55.12;95274.19;4986751;28;20470;-67
2023/04/13 07:28:42;;;;;;;4.40;1.80;;;;;;;9.20;54.22;95270.03;4987742;28;20239;-68
2023/04/13 07:31:08;;;;;;;10.80;2.63;;;;;;;9.40;53.10;95267.13;4988902;28;20218;-68
2023/04/13 07:33:34;;;;;;;11.80;2.50;;;;;;;9.12;53.23;95270.47;4984934;28;20172;-67
2023/04/13 07:35:59;;;;;;;5.80;1.87;;;;;;;9.14;54.06;95273.81;4989074;28;20181;-67
2023/04/13 07:38:25;;;;;;;4.40;1.93;;;;;;;9.10;54.34;95277.56;4988327;28;20188;-67
2023/04/13 07:40:50;;;;;;;8.10;3.17;;;;;;;9.20;53.31;95276.09;4984474;28;20284;-68
2023/04/13 07:43:16;;;;;;;13.80;2.37;;;;;;;9.22;52.74;95276.88;4984631;28;20279;-67
2023/04/13 07:45:42;;;;;;;5.97;1.90;;;;;;;9.14;53.25;95280.84;4983632;28;20263;-67
2023/04/13 07:48:07;;;;;;;17.53;2.87;;;;;;;9.25;52.78;95283.69;4984403;28;20191;-67
2023/04/13 07:50:38;;;;;;;8.20;1.93;;;;;;;9.11;52.81;95281.84;4988787;28;20203;-67
2023/04/13 07:53:03;;;;;;;6.00;1.63;;;;;;;9.08;53.44;95275.03;4985545;28;20181;-67
2023/04/13 07:55:29;;;;;;;5.13;1.77;;;;;;;9.20;52.69;95281.34;4988385;28;20412;-67
2023/04/13 07:57:55;;;;;;;5.70;1.67;;;;;;;9.17;52.73;95273.66;5003436;28;20272;-68
2023/04/13 08:00:21;;;;;;;9.93;2.97;;;;;;;9.35;52.20;95269.16;4986495;28;20279;-68
2023/04/13 08:02:47;;;;;;;9.90;1.37;;;;;;;9.71;50.98;95263.56;4983247;28;20235;-67
2023/04/13 08:05:12;;;;;;;14.70;2.60;;;;;;;10.11;50.25;95268.19;4989109;28;20420;-70
2023/04/13 08:07:37;;;;;;;7.80;1.73;;;;;;;10.26;48.92;95267.28;4985160;28;20436;-69
2023/04/13 08:10:03;;;;;;;7.47;2.23;;;;;;;10.30;48.90;95274.06;4988441;28;20197;-69
2023/04/13 08:12:30;;;;;;;6.30;1.80;;;;;;;10.40;48.28;95273.50;4988818;28;20171;-68
2023/04/13 08:14:55;;;;;;;4.67;1.73;;;;;;;10.58;48.34;95272.34;4988802;28;20196;-69
2023/04/13 08:17:21;;;;;;;3.13;1.57;;;;;;;10.65;48.50;95272.81;4981071;28;20481;-68
2023/04/13 08:19:46;;;;;;;2.40;1.30;;;;;;;10.88;47.28;95276.63;4988899;28;20252;-69
2023/04/13 08:22:12;;;;;;;8.27;1.67;;;;;;;11.23;46.68;95272.59;4988829;28;20859;-68
2023/04/13 08:24:37;;;;;;;5.63;1.70;;;;;;;11.25;45.79;95267.25;4987873;28;20242;-69
2023/04/13 08:27:06;;;;;;;8.47;1.80;;;;;;;11.22;45.84;95278.81;4970610;28;20177;-69
2023/04/13 08:29:31;;;;;;;5.27;1.80;;;;;;;11.12;45.58;95267.19;4988151;28;20219;-69
2023/04/13 08:31:57;;;;;;;9.43;2.70;;;;;;;11.23;45.96;95274.41;4980341;28;20934;-69
2023/04/13 08:34:23;;;;;;;17.40;2.13;;;;;;;11.55;44.86;95279.31;4987151;28;20330;-69
2023/04/13 08:36:49;;;;;;;11.63;2.40;;;;;;;11.79;44.68;95271.63;4987597;28;20419;-69
2023/04/13 08:39:15;;;;;;;10.03;2.40;;;;;;;11.89;44.72;95267.47;4987196;28;20622;-69
2023/04/13 08:41:48;;;;;;;9.30;1.93;;;;;;;11.56;44.76;95266.09;4981847;28;20535;-68
2023/04/13 08:44:14;;;;;;;3.73;2.20;;;;;;;11.26;44.60;95268.09;4983529;28;20176;-69
2023/04/13 08:46:42;;;;;;;5.10;2.00;;;;;;;11.18;45.05;95272.06;4987531;28;20467;-68
2023/04/13 08:49:11;;;;;;;6.20;2.10;;;;;;;11.15;44.50;95281.91;4987390;28;20785;-68
2023/04/13 08:51:37;;;;;;;14.90;2.33;;;;;;;10.95;44.96;95280.56;4987128;28;20424;-67
2023/04/13 08:54:04;;;;;;;8.00;2.37;;;;;;;10.98;45.23;95280.34;4987535;28;20916;-67
2023/04/13 08:56:30;;;;;;;8.95;1.98;;;;;;;11.01;43.98;95278.41;4986745;28;20424;-68
2023/04/13 08:59:02;;;;;;;11.03;2.90;;;;;;;10.89;44.58;95278.31;4987469;28;20177;-68
2023/04/13 09:01:29;;;;;;;4.40;1.73;;;;;;;10.91;45.09;95276.44;4987258;28;20586;-67
2023/04/13 09:04:06;;;;;;;8.97;2.03;;;;;;;10.88;45.18;95281.88;4987298;28;20989;-68
2023/04/13 09:06:34;;;;;;;9.33;2.10;;;;;;;10.70;44.42;95274.25;4986349;28;20434;-68
2023/04/13 09:09:06;;;;;;;15.00;2.50;;;;;;;10.59;44.93;95282.78;4987150;28;20792;-68
2023/04/13 09:11:31;;;;;;;14.67;2.80;;;;;;;10.55;45.37;95285.69;4986746;28;20427;-68
2023/04/13 09:13:57;;;;;;;9.03;2.17;;;;;;;10.64;44.82;95277.25;4987298;28;20508;-68
2023/04/13 09:16:22;;;;;;;6.77;2.27;;;;;;;10.53;45.32;95279.69;4986855;28;20181;-68
2023/04/13 09:18:52;;;;;;;8.83;1.70;;;;;;;10.45;45.49;95280.16;4986852;28;20189;-68
2023/04/13 09:21:18;;;;;;;6.43;1.83;;;;;;;10.40;46.37;95284.84;4986907;28;20189;-68
2023/04/13 09:23:57;;;;;;;7.53;2.45;;;;;;;10.48;45.63;95287.00;4986489;28;20775;-69
2023/04/13 09:26:23;;;;;;;7.50;2.30;;;;;;;10.38;46.04;95284.94;4986868;28;20184;-67
2023/04/13 09:28:51;;;;;;;5.43;2.03;;;;;;;10.28;46.01;95280.31;4987111;28;20412;-68
2023/04/13 09:31:17;;;;;;;10.53;2.33;;;;;;;10.32;46.24;95276.59;4987182;28;20192;-68
2023/04/13 09:33:52;;;;;;;4.83;1.87;;;;;;;10.37;46.64;95269.31;4986920;28;20422;-68
2023/04/13 09:36:21;;;;;;;4.23;1.93;;;;;;;10.33;46.79;95276.50;4986827;28;21058;-68
2023/04/13 09:38:52;;;;;;;5.70;1.93;;;;;;;10.25;46.96;95275.25;4987052;28;20782;-68
2023/04/13 09:41:32;;;;;;;8.53;2.43;;;;;;;10.14;49.21;95276.75;4986552;28;20919;-68
2023/04/13 09:44:02;;;;;;;16.53;2.57;;;;;;;10.28;50.06;95264.59;4987127;28;20430;-67
2023/04/13 09:46:28;;;;;;;6.17;2.00;;;;;;;10.29;49.55;95261.03;4986988;28;20420;-69
2023/04/13 09:49:01;;;;;;;5.50;2.50;;;;;;;10.51;50.53;95258.81;4987024;28;20739;-67
2023/04/13 09:51:37;;;;;;;7.03;3.60;;;;;;;10.60;49.71;95249.50;4988696;28;20725;-67
2023/04/13 09:54:04;;;;;;;6.80;2.50;;;;;;;11.16;48.77;95247.69;4990770;28;20416;-68
2023/04/13 09:56:41;;;;;;;5.93;1.67;;;;;;;11.78;45.46;95238.38;4990541;28;20420;-68
2023/04/13 09:59:08;;;;;;;6.03;2.03;;;;;;;12.01;43.67;95240.34;4990731;28;20419;-69
2023/04/13 10:01:36;;;;;;;9.37;2.17;;;;;;;12.25;43.79;95235.16;4990865;28;20456;-68
2023/04/13 10:04:05;;;;;;;8.00;1.80;;;;;;;12.60;41.62;95242.41;4990807;28;20508;-69
2023/04/13 10:06:37;;;;;;;8.77;2.30;;;;;;;12.84;40.28;95238.97;4990901;28;20416;-67
2023/04/13 10:09:02;;;;;;;4.80;2.10;;;;;;;12.82;39.90;95238.25;4990385;28;20427;-68
2023/04/13 10:11:29;;;;;;;8.90;2.00;;;;;;;12.89;40.34;95240.31;4990633;28;20432;-68
2023/04/13 10:14:00;;;;;;;6.27;2.20;;;;;;;13.05;40.13;95239.22;4991036;28;20706;-68
2023/04/13 10:16:56;;;;;;;9.87;2.20;;;;;;;12.67;40.07;95237.56;5005252;28;20434;-69
2023/04/13 10:19:29;;;;;;;11.88;1.77;;;;;;;12.34;40.09;95235.50;4989383;28;20356;-68
2023/04/13 10:21:55;;;;;;;8.25;2.15;;;;;;;12.11;40.27;95230.03;4991205;28;20499;-69
2023/04/13 10:24:22;;;;;;;19.93;2.73;;;;;;;12.17;40.22;95232.25;4991400;28;20205;-69
2023/04/13 10:26:55;;;;;;;9.40;2.73;;;;;;;12.41;40.42;95220.97;4990360;28;20177;-69
2023/04/13 10:29:31;;;;;;;6.17;2.00;;;;;;;12.42;40.29;95228.72;4990557;28;20427;-69
2023/04/13 10:32:02;;;;;;;14.60;3.03;;;;;;;12.38;40.37;95221.16;4990194;28;20432;-69
2023/04/13 10:34:30;;;;;;;11.67;2.60;;;;;;;12.50;40.63;95222.94;4990498;28;20878;-69
2023/04/13 10:37:02;;;;;;;18.50;3.70;;;;;;;12.82;39.55;95204.84;4970446;28;21303;-67
2023/04/13 10:39:31;;;;;;;8.93;1.97;;;;;;;12.96;38.44;95211.75;4970994;28;20416;-67
2023/04/13 10:42:07;;;;;;;9.87;2.07;;;;;;;13.40;38.54;95206.88;4970895;28;20927;-68
2023/04/13 10:44:50;;;;;;;6.10;1.77;;;;;;;13.34;37.78;95205.50;4971091;28;20420;-68
2023/04/13 10:47:19;;;;;;;8.20;1.80;;;;;;;13.34;38.02;95205.50;4970312;28;20452;-68
2023/04/13 10:49:45;;;;;;;36.77;5.40;;;;;;;13.25;38.71;95196.47;4970892;28;20762;-69
2023/04/13 10:52:11;;;;;;;9.63;2.97;;;;;;;13.84;43.99;95200.03;4980684;28;20429;-69
2023/04/13 10:54:39;;;;;;;9.23;2.33;;;;;;;13.92;41.20;95197.66;4990256;28;20177;-70
2023/04/13 10:57:06;;;;;;;17.73;2.83;;;;;;;14.17;40.69;95199.25;4990000;28;20828;-69
2023/04/13 10:59:48;;;;;;;16.80;3.37;;;;;;;14.24;43.57;95199.63;4989846;28;20471;-70
2023/04/13 11:02:16;;;;;;;14.40;2.93;;;;;;;14.66;43.83;95200.72;4989377;28;20479;-70
2023/04/13 11:04:45;;;;;;;5.00;2.17;;;;;;;14.67;38.31;95197.13;4987534;28;20435;-70
2023/04/13 11:07:13;;;;;;;6.37;2.50;;;;;;;14.73;40.41;95196.63;4971650;28;20469;-70
2023/04/13 11:09:39;;;;;;;6.40;2.03;;;;;;;14.52;38.86;95193.03;4989594;28;20483;-70
2023/04/13 11:12:07;;;;;;;5.47;2.07;;;;;;;14.14;39.80;95188.94;4989635;28;20412;-70
2023/04/13 11:14:35;;;;;;;12.37;2.47;;;;;;;14.12;38.79;95189.03;4989571;28;20412;-69
2023/04/13 11:17:00;;;;;;;20.23;3.00;;;;;;;14.13;38.29;95193.38;4989366;28;20419;-70
2023/04/13 11:19:26;;;;;;;5.10;1.70;;;;;;;13.93;39.90;95194.91;4986159;28;20442;-70
2023/04/13 11:21:56;;;;;;;7.50;1.90;;;;;;;13.73;38.85;95199.06;4987996;28;20208;-68
2023/04/13 11:24:26;;;;;;;5.07;1.70;;;;;;;13.31;40.71;95196.03;4988442;28;20543;-69
2023/04/13 11:26:53;;;;;;;5.93;2.37;;;;;;;13.23;40.69;95201.03;4989235;28;20558;-66
2023/04/13 11:29:20;;;;;;;10.90;2.30;;;;;;;12.87;38.65;95204.53;4989561;28;20539;-67
2023/04/13 11:31:45;;;;;;;5.73;1.80;;;;;;;12.65;38.63;95195.53;5002510;28;20466;-66
2023/04/13 11:34:11;;;;;;;4.27;1.77;;;;;;;12.44;39.15;95207.59;4980365;28;20439;-67
2023/04/13 11:36:38;;;;;;;9.03;1.87;;;;;;;12.17;40.66;95208.56;4977168;28;20180;-67
2023/04/13 11:39:08;;;;;;;7.00;1.87;;;;;;;12.08;39.82;95212.66;4985547;28;20469;-66